Time;durP1;ratioP1;P1;durP2;ratioP2;P2;SDS_P1;SDS_P2;PMS_P1;PMS_P2;Temp;Humidity;BMP_temperature;BMP_pressure;BME280_temperature;BME280_humidity;BME280_pressure;Samples;Min_cycle;Max_cycle;Signal;HPM_P1;HPM_P2
2022/06/25 00:00:14;;;;;;;9.35;3.15;;;;;;;21.81;63.01;100179.56;5093358;57;1139001;-73
2022/06/25 00:05:28;;;;;;;7.78;3.37;;;;;;;21.67;63.69;100174.12;5155968;57;1139213;-73
2022/06/25 00:10:34;;;;;;;3.40;3.10;;;;;;;21.62;63.00;100175.73;5173369;56;1139152;-73
2022/06/25 00:15:39;;;;;;;5.90;3.50;;;;;;;21.56;63.46;100180.55;5217101;56;1138989;-73
2022/06/25 00:20:46;;;;;;;3.83;3.30;;;;;;;21.55;63.42;100173.00;5217134;56;1138973;-73
2022/06/25 00:30:54;;;;;;;8.75;4.15;;;;;;;21.47;63.53;100175.86;5361602;55;46218;-73
2022/06/25 00:36:00;;;;;;;4.78;3.08;;;;;;;21.33;63.67;100166.88;5142724;56;1135223;-73
2022/06/25 00:41:06;;;;;;;3.72;3.33;;;;;;;21.33;64.23;100178.98;5058385;57;1139068;-73
2022/06/25 00:46:12;;;;;;;3.27;3.08;;;;;;;21.29;63.86;100187.64;5165855;57;1139062;-72
2022/06/25 00:51:19;;;;;;;7.00;3.15;;;;;;;21.24;64.00;100192.77;5158162;57;1139158;-72
2022/06/25 00:56:28;;;;;;;3.72;3.40;;;;;;;21.19;64.53;100196.06;5139299;57;1139038;-72
2022/06/25 01:01:36;;;;;;;4.72;2.87;;;;;;;21.18;63.94;100193.02;5153058;57;1138971;-72
2022/06/25 01:06:42;;;;;;;6.92;3.37;;;;;;;21.18;63.75;100201.09;5102428;57;1139508;-71
2022/06/25 01:11:48;;;;;;;5.90;3.33;;;;;;;21.19;63.67;100201.45;5054718;57;1139095;-72
2022/06/25 01:16:54;;;;;;;5.08;3.40;;;;;;;21.18;64.24;100204.30;4987268;59;1139037;-72
2022/06/25 01:22:05;;;;;;;4.75;3.05;;;;;;;21.14;64.30;100207.05;4916781;59;1139095;-73
2022/06/25 01:27:16;;;;;;;3.47;3.03;;;;;;;21.07;64.21;100207.02;4829902;59;1139101;-72
2022/06/25 01:32:23;;;;;;;5.40;3.40;;;;;;;21.02;64.51;100206.75;4908735;59;1139387;-72
2022/06/25 01:37:30;;;;;;;4.97;3.45;;;;;;;20.98;64.30;100210.84;5007200;59;1139280;-72
2022/06/25 01:48:03;;;;;;;10.60;3.60;;;;;;;20.90;64.34;100206.45;4895566;59;1139576;-72
2022/06/25 01:53:09;;;;;;;10.13;3.55;;;;;;;20.86;64.75;100204.34;5024623;58;1139245;-72
2022/06/25 01:58:16;;;;;;;3.65;3.33;;;;;;;20.87;64.63;100208.69;4964924;59;1139069;-72
2022/06/25 02:03:22;;;;;;;8.55;4.15;;;;;;;20.89;64.44;100217.39;5004597;58;1137397;-73
2022/06/25 02:08:32;;;;;;;7.62;3.70;;;;;;;20.86;64.56;100213.74;5002025;59;1137052;-72
2022/06/25 02:13:38;;;;;;;3.42;3.12;;;;;;;20.82;64.86;100209.26;4992445;59;1137131;-73
2022/06/25 02:18:44;;;;;;;7.47;3.70;;;;;;;20.80;64.60;100209.95;5011814;59;1137338;-72
2022/06/25 02:23:49;;;;;;;6.65;4.15;;;;;;;20.76;64.77;100205.18;4949149;58;1137184;-72
2022/06/25 02:28:55;;;;;;;6.78;3.12;;;;;;;20.73;65.43;100199.67;4878436;59;1137109;-72
2022/06/25 02:34:02;;;;;;;4.83;3.35;;;;;;;20.66;64.85;100209.52;4990159;58;1137099;-72
2022/06/25 02:39:09;;;;;;;3.60;3.27;;;;;;;20.58;65.62;100204.28;4982267;58;1137172;-72
2022/06/25 02:44:15;;;;;;;7.92;3.65;;;;;;;20.53;65.73;100212.07;4934675;58;1137294;-72
2022/06/25 02:49:24;;;;;;;4.60;3.35;;;;;;;20.49;65.91;100211.61;5010189;58;1137056;-72
2022/06/25 02:54:31;;;;;;;6.12;4.22;;;;;;;20.49;65.47;100221.02;5032265;58;1137155;-72
2022/06/25 02:59:38;;;;;;;12.47;3.77;;;;;;;20.48;65.99;100220.69;5032246;58;1137002;-73
2022/06/25 03:04:43;;;;;;;5.33;3.30;;;;;;;20.46;66.02;100219.25;5032371;58;1139052;-72
2022/06/25 03:09:49;;;;;;;10.23;3.52;;;;;;;20.42;66.00;100217.44;4964445;58;1136937;-72
2022/06/25 03:14:55;;;;;;;6.90;3.50;;;;;;;20.38;66.00;100218.00;5032266;58;1136944;-72
2022/06/25 03:20:01;;;;;;;6.95;3.58;;;;;;;20.35;66.06;100231.27;5032649;58;1134936;-72
2022/06/25 03:25:09;;;;;;;6.10;3.52;;;;;;;20.32;66.55;100232.47;4982931;58;1139040;-72
2022/06/25 03:30:16;;;;;;;6.30;3.17;;;;;;;20.32;66.93;100226.27;4857129;60;1139155;-71
2022/06/25 03:35:22;;;;;;;4.08;3.67;;;;;;;20.29;66.83;100230.19;5044778;57;1139047;-72
2022/06/25 03:40:30;;;;;;;8.13;4.12;;;;;;;20.29;66.74;100234.22;5156086;56;1138989;-72
2022/06/25 03:45:39;;;;;;;4.78;3.70;;;;;;;20.31;66.78;100234.03;5158301;57;1139234;-72
2022/06/25 03:50:45;;;;;;;4.22;3.65;;;;;;;20.30;67.13;100225.14;5147581;57;1139274;-72
2022/06/25 03:55:51;;;;;;;8.85;3.60;;;;;;;20.30;67.07;100224.30;5146609;57;1138967;-72
2022/06/25 04:00:57;;;;;;;5.85;4.00;;;;;;;20.30;67.29;100232.36;5149547;57;1138984;-72
2022/06/25 04:06:04;;;;;;;6.00;3.55;;;;;;;20.29;67.62;100234.22;5139306;56;1139061;-72
2022/06/25 04:11:17;;;;;;;7.03;3.70;;;;;;;20.29;67.25;100238.24;5175309;56;1139028;-72
2022/06/25 04:16:31;;;;;;;7.47;4.65;;;;;;;20.31;67.18;100232.17;5167151;56;1139072;-73
2022/06/25 04:21:39;;;;;;;8.75;3.52;;;;;;;20.35;67.34;100243.35;5133180;56;1139032;-73
2022/06/25 04:26:46;;;;;;;8.85;4.00;;;;;;;20.40;67.00;100238.80;5070609;57;1138985;-71
2022/06/25 04:31:51;;;;;;;6.47;3.55;;;;;;;20.42;67.21;100242.96;5057330;57;1139291;-72
2022/06/25 04:37:02;;;;;;;8.98;3.62;;;;;;;20.47;67.19;100247.23;5051758;57;1138875;-72
2022/06/25 04:42:08;;;;;;;10.54;3.46;;;;;;;20.51;66.86;100247.70;5046101;57;1139032;-72
2022/06/25 04:47:14;;;;;;;3.60;3.30;;;;;;;20.55;67.25;100257.05;5043475;58;1141078;-72
2022/06/25 04:52:21;;;;;;;6.05;3.87;;;;;;;20.58;67.05;100249.96;5033531;58;1139151;-72
2022/06/25 04:57:27;;;;;;;5.22;3.52;;;;;;;20.65;67.25;100269.14;5034969;58;1139059;-72
2022/06/25 05:02:53;;;;;;;6.53;3.75;;;;;;;20.69;67.07;100260.20;5041227;58;1139003;-72
2022/06/25 05:08:00;;;;;;;4.60;3.50;;;;;;;20.77;67.29;100267.33;5000526;58;1139387;-72
2022/06/25 05:13:15;;;;;;;7.70;3.85;;;;;;;20.85;67.45;100269.88;4951855;59;1138935;-72
2022/06/25 05:18:23;;;;;;;7.15;3.35;;;;;;;20.92;67.16;100280.19;4988102;59;1139023;-72
2022/06/25 05:23:30;;;;;;;8.60;4.25;;;;;;;21.06;67.55;100288.70;4918849;59;1139175;-72
2022/06/25 05:28:37;;;;;;;5.20;3.45;;;;;;;21.25;67.26;100280.50;4869632;59;1139082;-72
2022/06/25 05:33:43;;;;;;;7.87;3.65;;;;;;;21.41;66.81;100281.57;4999653;58;1139064;-72
2022/06/25 05:38:48;;;;;;;3.65;3.20;;;;;;;21.60;66.58;100281.41;5041953;58;1139400;-72
2022/06/25 05:43:54;;;;;;;5.83;3.20;;;;;;;21.80;66.50;100279.69;5033452;58;1136897;-73
2022/06/25 05:48:59;;;;;;;8.48;3.67;;;;;;;21.97;65.77;100279.70;4953781;59;1136986;-70
2022/06/25 05:54:05;;;;;;;6.25;3.42;;;;;;;22.15;65.08;100277.86;4960640;59;1137030;-72
2022/06/25 05:59:12;;;;;;;6.35;3.77;;;;;;;22.29;64.11;100282.79;4959253;57;1136974;-71
2022/06/25 06:04:18;;;;;;;8.35;4.08;;;;;;;22.42;64.19;100286.88;4944683;58;1137197;-72
2022/06/25 06:09:24;;;;;;;6.58;3.35;;;;;;;22.61;64.49;100282.05;5015361;59;1137296;-73
2022/06/25 06:14:29;;;;;;;6.47;3.58;;;;;;;22.97;62.77;100297.11;4947076;59;1137245;-69
2022/06/25 06:19:35;;;;;;;7.45;3.62;;;;;;;22.97;62.77;100297.11;5015777;59;1136981;-73
2022/06/25 06:24:41;;;;;;;5.12;3.17;;;;;;;23.09;62.05;100304.91;4993301;59;1137074;-74
2022/06/25 06:29:46;;;;;;;4.92;3.30;;;;;;;23.22;61.78;100315.70;4957060;58;1137242;-74
2022/06/25 06:34:53;;;;;;;3.90;3.35;;;;;;;23.47;62.07;100326.74;4894238;59;1136971;-74
2022/06/25 06:39:58;;;;;;;5.70;3.20;;;;;;;23.62;58.64;100327.91;4952780;59;1136981;-74
2022/06/25 06:45:05;;;;;;;7.92;3.60;;;;;;;23.67;58.53;100320.03;4845885;59;1137348;-74
2022/06/25 06:50:11;;;;;;;8.95;3.87;;;;;;;23.75;59.47;100323.33;4985168;58;1137310;-74
2022/06/25 06:55:17;;;;;;;6.15;3.80;;;;;;;23.95;58.25;100316.55;4963071;58;1137029;-75
2022/06/25 07:00:23;;;;;;;9.25;3.58;;;;;;;24.10;58.15;100321.20;4965864;58;1136986;-74
2022/06/25 07:05:28;;;;;;;7.60;4.05;;;;;;;24.28;58.35;100319.73;5018169;58;1137002;-74
2022/06/25 07:10:34;;;;;;;11.33;3.58;;;;;;;24.47;58.13;100320.98;4987346;58;1137276;-74
2022/06/25 07:15:43;;;;;;;4.70;4.03;;;;;;;24.70;56.37;100325.06;4982842;58;1139404;-75
2022/06/25 07:20:48;;;;;;;12.00;3.87;;;;;;;24.81;54.90;100329.25;4860965;60;1134966;-75
2022/06/25 07:25:54;;;;;;;11.18;4.33;;;;;;;24.85;55.30;100330.48;4842256;61;21226;-72
2022/06/25 07:30:59;;;;;;;9.20;3.52;;;;;;;25.00;55.35;100331.58;4826274;61;1136979;-72
2022/06/25 07:36:06;;;;;;;8.95;3.87;;;;;;;25.18;55.17;100330.84;4844312;60;1139054;-72
2022/06/25 07:41:12;;;;;;;8.80;3.97;;;;;;;25.36;54.37;100336.86;4842414;60;1138971;-72
2022/06/25 07:46:18;;;;;;;4.10;3.23;;;;;;;25.50;53.76;100339.25;4919385;60;1139082;-71
2022/06/25 07:56:47;;;;;;;55.33;5.97;;;;;;;25.62;53.68;100340.73;4924336;59;1141117;-72
2022/06/25 08:01:53;;;;;;;7.95;3.33;;;;;;;25.79;54.25;100342.36;4929072;59;1141198;-72
2022/06/25 08:06:59;;;;;;;7.47;4.22;;;;;;;26.13;52.27;100343.67;4887164;59;1139051;-71
2022/06/25 08:12:05;;;;;;;11.15;3.87;;;;;;;26.34;53.16;100340.55;4974843;59;1139182;-71
2022/06/25 08:17:10;;;;;;;7.30;3.65;;;;;;;26.54;52.78;100334.38;4893749;59;1141122;-72
2022/06/25 08:22:16;;;;;;;6.12;3.62;;;;;;;26.80;51.57;100331.00;4864419;60;1139336;-72
2022/06/25 08:27:22;;;;;;;7.03;3.47;;;;;;;26.99;50.34;100335.37;4864523;60;1139123;-72
2022/06/25 08:32:29;;;;;;;15.03;3.08;;;;;;;27.13;51.27;100344.14;4865764;59;1139307;-72
2022/06/25 08:37:44;;;;;;;9.08;3.98;;;;;;;27.26;50.73;100339.34;4986952;58;1141026;-72
2022/06/25 08:42:50;;;;;;;8.03;3.67;;;;;;;27.45;49.13;100338.73;5013979;57;1139167;-72
2022/06/25 08:47:59;;;;;;;3.47;3.02;;;;;;;27.43;48.51;100339.50;5033693;58;1139268;-72
2022/06/25 08:53:06;;;;;;;7.30;3.65;;;;;;;27.57;48.10;100346.40;5023166;58;1139053;-72
2022/06/25 08:58:13;;;;;;;9.43;3.42;;;;;;;27.75;49.12;100343.28;4994780;58;1139092;-72
2022/06/25 09:03:19;;;;;;;6.30;3.52;;;;;;;27.90;48.12;100336.84;5081780;56;1139117;-73
2022/06/25 09:08:25;;;;;;;9.88;3.10;;;;;;;28.10;48.24;100337.84;5126534;56;1138975;-72
2022/06/25 09:13:30;;;;;;;9.23;3.70;;;;;;;28.27;48.45;100340.96;5093533;57;1138958;-72
2022/06/25 09:18:36;;;;;;;3.47;3.12;;;;;;;28.34;47.11;100344.92;5096377;57;1138919;-72
2022/06/25 09:24:04;;;;;;;14.68;4.30;;;;;;;28.45;47.29;100338.63;5098602;57;1139109;-72
2022/06/25 09:29:06;;;;;;;3.58;3.37;;;;;;;28.66;45.94;100341.23;5140492;57;1141143;-72
2022/06/25 09:34:12;;;;;;;5.55;3.37;;;;;;;28.88;46.00;100340.04;5152572;56;1139097;-73
2022/06/25 09:39:18;;;;;;;4.65;2.90;;;;;;;29.12;44.84;100332.60;5095875;57;1139133;-72
2022/06/25 09:44:24;;;;;;;9.63;3.17;;;;;;;29.25;43.92;100334.47;5095615;57;1139279;-73
2022/06/25 09:49:30;;;;;;;4.10;2.67;;;;;;;29.36;43.33;100335.47;4979845;58;1139431;-74
2022/06/25 09:54:40;;;;;;;9.18;2.75;;;;;;;29.38;42.62;100336.91;4962004;58;1139075;-74
2022/06/25 09:59:43;;;;;;;7.05;3.35;;;;;;;29.51;43.88;100333.56;5041577;58;1139211;-74
2022/06/25 10:04:51;;;;;;;7.85;3.05;;;;;;;29.68;42.23;100335.21;5095775;58;1136887;-74
2022/06/25 10:09:57;;;;;;;6.72;2.83;;;;;;;29.77;42.67;100328.82;5071136;58;1136886;-74
2022/06/25 10:15:04;;;;;;;13.68;3.55;;;;;;;29.88;40.58;100330.61;5072299;57;1137073;-74
2022/06/25 10:20:14;;;;;;;29.82;3.77;;;;;;;29.96;40.58;100335.63;5074436;57;1139155;-74
2022/06/25 10:25:24;;;;;;;2.62;2.42;;;;;;;30.16;41.20;100325.58;5086221;57;1139209;-74
2022/06/25 10:30:46;;;;;;;8.18;3.00;;;;;;;30.32;42.25;100323.34;5042114;58;1137010;-74
2022/06/25 10:35:54;;;;;;;;;;;;;;;30.43;38.56;100328.37;5071220;57;1136925;-74
2022/06/25 10:46:42;;;;;;;14.78;2.65;;;;;;;30.43;39.86;100324.28;5019034;58;1133030;-74
2022/06/25 10:51:47;;;;;;;6.43;2.83;;;;;;;30.56;38.99;100329.92;5239371;56;1141007;-74
2022/06/25 10:56:58;;;;;;;5.35;2.12;;;;;;;30.71;39.00;100319.17;5237661;56;1139061;-74
2022/06/25 11:02:10;;;;;;;7.57;3.50;;;;;;;30.88;38.83;100323.18;5241501;56;1139030;-75
2022/06/25 11:07:20;;;;;;;6.50;2.60;;;;;;;31.04;38.42;100323.08;5201367;56;1138934;-74
2022/06/25 11:12:34;;;;;;;13.05;2.70;;;;;;;31.03;38.19;100317.88;5231545;56;1139035;-74
2022/06/25 11:17:38;;;;;;;11.80;3.35;;;;;;;31.18;37.28;100324.87;5215924;56;1141076;-74
2022/06/25 11:22:52;;;;;;;4.00;2.40;;;;;;;31.13;37.13;100333.59;5216434;56;1141105;-74
2022/06/25 11:33:21;;;;;;;24.30;3.10;;;;;;;31.25;36.73;100336.98;5154538;57;1138966;-74
2022/06/25 11:38:27;;;;;;;3.87;2.20;;;;;;;31.23;38.28;100324.11;5088469;57;1141098;-75
2022/06/25 11:43:36;;;;;;;4.10;2.75;;;;;;;31.47;38.94;100324.06;5026126;58;1138987;-74
2022/06/25 11:48:44;;;;;;;10.10;2.70;;;;;;;31.56;37.17;100332.59;4921301;60;1139082;-74
2022/06/25 11:53:51;;;;;;;4.53;2.72;;;;;;;31.70;37.92;100318.78;4955110;58;1141089;-75
2022/06/25 11:58:57;;;;;;;7.97;3.30;;;;;;;31.79;37.56;100328.13;5062233;58;1138971;-75
2022/06/25 12:04:04;;;;;;;3.02;2.60;;;;;;;31.79;37.56;100328.13;5060955;58;1138948;-74
2022/06/25 12:09:11;;;;;;;11.97;3.17;;;;;;;31.67;36.89;100333.80;5084775;57;1139130;-74
2022/06/25 12:14:17;;;;;;;5.87;2.85;;;;;;;31.92;36.29;100329.06;5052048;56;1141088;-74
2022/06/25 12:19:24;;;;;;;8.63;2.50;;;;;;;31.91;35.55;100334.79;5047926;57;1139019;-73
2022/06/25 12:24:30;;;;;;;3.58;3.20;;;;;;;31.88;35.74;100333.41;5155683;56;1139236;-74
2022/06/25 12:29:37;;;;;;;2.37;2.17;;;;;;;31.89;35.41;100328.76;5127631;57;1139066;-74
2022/06/25 12:34:53;;;;;;;10.03;7.90;;;;;;;31.92;35.29;100340.00;5087674;58;1139107;-75
2022/06/25 12:40:00;;;;;;;6.12;2.83;;;;;;;31.93;34.21;100336.15;5021020;58;1141366;-73
2022/06/25 12:45:07;;;;;;;2.95;2.72;;;;;;;31.98;35.76;100341.66;5028067;57;1139218;-71
2022/06/25 12:50:34;;;;;;;7.15;3.60;;;;;;;31.93;35.48;100340.83;5089510;57;1139114;-70
2022/06/25 12:55:43;;;;;;;6.72;3.00;;;;;;;31.90;35.88;100335.87;5087929;57;1136932;-73
2022/06/25 13:00:49;;;;;;;4.20;2.90;;;;;;;31.84;36.15;100327.34;5086784;56;1136975;-72
2022/06/25 13:05:57;;;;;;;4.70;2.90;;;;;;;31.91;37.51;100323.31;5101041;56;1137067;-72
2022/06/25 13:11:05;;;;;;;7.25;3.22;;;;;;;32.03;37.22;100329.39;5181886;56;1136948;-75
2022/06/25 13:16:12;;;;;;;5.33;4.83;;;;;;;32.08;36.53;100325.88;5151850;57;1136948;-75
2022/06/25 13:21:20;;;;;;;3.65;2.92;;;;;;;32.08;36.53;100329.41;5168735;57;1136950;-73
2022/06/25 13:26:26;;;;;;;9.50;3.77;;;;;;;32.12;36.43;100330.53;5164669;57;1136907;-74
2022/06/25 13:31:32;;;;;;;2.67;2.45;;;;;;;32.32;36.29;100324.37;5148769;56;1137128;-74
2022/06/25 13:36:38;;;;;;;6.05;2.50;;;;;;;32.50;35.88;100325.27;5165040;56;1136804;-74
2022/06/25 13:41:45;;;;;;;7.47;2.62;;;;;;;32.70;35.06;100325.03;5131624;56;1136827;-75
2022/06/25 13:46:54;;;;;;;2.80;2.50;;;;;;;32.76;34.82;100319.34;5183705;56;1136893;-74
2022/06/25 13:52:16;;;;;;;5.95;2.30;;;;;;;32.78;34.21;100310.86;5217813;56;1137111;-75
2022/06/25 13:57:21;;;;;;;7.70;2.27;;;;;;;32.92;33.85;100312.53;5189792;56;1138954;-74
2022/06/25 14:02:27;;;;;;;3.70;2.33;;;;;;;32.85;32.97;100313.60;5217730;56;1138949;-75
2022/06/25 14:07:32;;;;;;;7.15;2.60;;;;;;;32.76;32.44;100315.78;5176827;56;1139074;-75
2022/06/25 14:12:39;;;;;;;4.42;2.00;;;;;;;32.71;33.14;100307.51;5202345;56;1138997;-75
2022/06/25 14:17:45;;;;;;;3.35;2.65;;;;;;;32.78;31.48;100311.69;5217645;56;1139012;-75
2022/06/25 14:22:50;;;;;;;6.17;2.67;;;;;;;32.92;32.75;100311.98;5212552;56;1139010;-75
2022/06/25 14:28:00;;;;;;;4.22;2.60;;;;;;;33.04;33.17;100310.34;5175480;56;1138977;-75
2022/06/25 14:33:07;;;;;;;5.92;2.58;;;;;;;33.13;32.58;100313.66;5162460;56;1138962;-74
2022/06/25 14:43:36;;;;;;;4.60;2.92;;;;;;;33.01;32.22;100301.30;5217947;56;1139021;-75
2022/06/25 14:48:50;;;;;;;2.50;2.40;;;;;;;32.85;32.54;100304.02;5132393;56;1138972;-75
2022/06/25 14:53:57;;;;;;;5.17;2.70;;;;;;;32.74;32.80;100300.16;5133524;56;1139032;-76
2022/06/25 14:59:04;;;;;;;6.08;2.83;;;;;;;32.82;32.10;100294.17;5170077;56;1139248;-73
2022/06/25 15:04:09;;;;;;;7.00;3.02;;;;;;;32.88;32.09;100288.95;5207830;56;1139025;-74
2022/06/25 15:09:15;;;;;;;3.65;2.45;;;;;;;32.80;32.14;100287.59;5147359;56;1138923;-74
2022/06/25 15:14:21;;;;;;;4.40;2.83;;;;;;;32.74;32.43;100289.20;5219423;56;1138989;-72
2022/06/25 15:19:27;;;;;;;3.50;2.58;;;;;;;32.74;32.78;100280.44;5219243;56;1138928;-73
2022/06/25 15:24:33;;;;;;;4.17;2.75;;;;;;;32.73;32.59;100281.53;5218529;56;1138239;-76
2022/06/25 15:29:39;;;;;;;4.15;2.42;;;;;;;32.73;30.93;100273.31;5207307;56;1139083;-73
2022/06/25 15:34:45;;;;;;;4.37;2.92;;;;;;;32.68;30.58;100283.42;5201232;56;1138954;-73
2022/06/25 15:39:51;;;;;;;9.20;2.92;;;;;;;32.69;31.74;100282.34;5173441;56;1139013;-76
2022/06/25 15:44:57;;;;;;;7.15;2.45;;;;;;;32.75;32.89;100276.61;5083608;57;1139208;-76
2022/06/25 15:50:03;;;;;;;4.25;2.95;;;;;;;32.78;32.90;100273.34;5144483;57;1138972;-74
2022/06/25 15:55:09;;;;;;;13.38;2.62;;;;;;;32.71;32.52;100274.09;5141900;57;1139034;-76
2022/06/25 16:05:22;;;;;;;13.20;3.35;;;;;;;32.49;32.48;100268.86;5307713;54;46199;-76
2022/06/25 16:10:27;;;;;;;7.33;2.80;;;;;;;32.32;33.65;100275.09;5043511;57;1136904;-77
2022/06/25 16:15:34;;;;;;;4.67;2.33;;;;;;;32.24;34.36;100282.98;5036844;57;1139328;-75
2022/06/25 16:20:41;;;;;;;8.23;2.60;;;;;;;32.18;34.81;100289.52;4986248;57;1139210;-74
2022/06/25 16:25:46;;;;;;;3.20;2.60;;;;;;;32.20;35.17;100279.98;5047039;58;1139113;-75
2022/06/25 16:30:52;;;;;;;8.03;2.75;;;;;;;32.20;34.38;100282.72;5058055;58;1139057;-74
2022/06/25 16:35:59;;;;;;;2.35;2.25;;;;;;;32.18;33.75;100284.04;5059597;58;1139002;-74
2022/06/25 16:41:06;;;;;;;5.62;2.30;;;;;;;32.12;33.82;100288.66;5083501;57;1139122;-75
2022/06/25 16:46:17;;;;;;;2.77;2.05;;;;;;;32.05;33.52;100286.18;5056446;57;1136860;-74
2022/06/25 16:51:23;;;;;;;14.50;2.75;;;;;;;32.03;33.50;100284.25;4955378;58;1137084;-74
2022/06/25 16:56:33;;;;;;;4.33;2.60;;;;;;;31.95;33.73;100294.86;4948921;59;1139134;-75
2022/06/25 17:01:38;;;;;;;3.52;2.45;;;;;;;31.86;33.73;100293.72;5089859;57;1136945;-74
2022/06/25 17:06:44;;;;;;;11.40;2.72;;;;;;;31.75;34.25;100309.25;5100529;56;1137046;-74
2022/06/25 17:11:50;;;;;;;4.92;2.58;;;;;;;31.67;34.81;100311.09;5003742;57;1139084;-76
2022/06/25 17:16:56;;;;;;;2.10;1.85;;;;;;;31.60;34.93;100310.48;4976933;58;1137021;-74
2022/06/25 17:22:08;;;;;;;7.25;1.98;;;;;;;31.41;35.44;100316.89;4887291;59;1137040;-76
2022/06/25 17:27:10;;;;;;;12.55;2.58;;;;;;;31.27;36.02;100316.51;4968632;58;1137034;-74
2022/06/25 17:32:15;;;;;;;14.58;2.50;;;;;;;31.23;36.97;100323.56;4999061;58;1139093;-74
2022/06/25 17:37:21;;;;;;;20.05;4.65;;;;;;;31.14;37.34;100327.05;4999363;58;1139040;-74
2022/06/25 17:42:28;;;;;;;3.17;1.92;;;;;;;31.02;38.22;100334.80;5122868;57;1139012;-74
2022/06/25 17:47:35;;;;;;;6.35;2.05;;;;;;;30.91;38.67;100337.70;4982573;57;1137053;-73
2022/06/25 17:52:40;;;;;;;7.53;1.98;;;;;;;30.77;38.93;100342.73;4966029;58;1136870;-74
2022/06/25 17:57:47;;;;;;;5.90;2.58;;;;;;;30.66;39.05;100345.08;4887586;59;1137008;-74
2022/06/25 18:02:54;;;;;;;12.03;2.85;;;;;;;30.51;39.56;100357.14;5017957;59;1136912;-75
2022/06/25 18:08:00;;;;;;;2.80;2.55;;;;;;;30.33;39.91;100361.83;4964381;59;1137155;-74
2022/06/25 18:13:06;;;;;;;9.88;2.42;;;;;;;30.17;40.16;100361.33;4972438;59;21213;-74
2022/06/25 18:18:12;;;;;;;6.20;2.90;;;;;;;30.06;40.26;100375.38;4953876;59;1134829;-74
2022/06/25 18:23:18;;;;;;;4.20;2.60;;;;;;;29.95;40.47;100374.05;4889707;58;1139264;-74
2022/06/25 18:28:23;;;;;;;19.40;3.67;;;;;;;29.89;40.66;100379.16;4938657;60;1139002;-74
2022/06/25 18:33:29;;;;;;;7.50;3.00;;;;;;;29.76;41.71;100384.42;4862863;60;1141156;-75
2022/06/25 18:38:38;;;;;;;4.65;2.50;;;;;;;29.66;41.82;100382.87;4957707;57;1139105;-76
2022/06/25 18:43:44;;;;;;;5.80;2.70;;;;;;;29.53;41.65;100390.02;5069129;57;1139063;-73
2022/06/25 18:48:50;;;;;;;6.42;2.80;;;;;;;29.39;41.98;100399.05;5023173;58;1139196;-73
2022/06/25 18:53:56;;;;;;;7.87;2.85;;;;;;;29.27;42.57;100407.78;4960724;58;1139009;-73
2022/06/25 18:59:02;;;;;;;4.22;3.08;;;;;;;29.19;43.05;100408.99;4894014;58;1139056;-72
2022/06/25 19:04:08;;;;;;;5.65;2.72;;;;;;;29.07;42.86;100419.65;4957960;58;1139082;-74
2022/06/25 19:09:14;;;;;;;7.65;2.30;;;;;;;28.96;43.18;100422.72;5022415;58;1139004;-72
2022/06/25 19:14:20;;;;;;;8.98;2.67;;;;;;;28.81;43.28;100430.04;4910515;59;1139330;-75
2022/06/25 19:19:26;;;;;;;5.75;2.55;;;;;;;28.72;43.51;100439.63;4982852;58;1139069;-72
2022/06/25 19:24:34;;;;;;;10.20;3.37;;;;;;;28.62;43.73;100447.55;5093403;58;1139104;-75
2022/06/25 19:29:40;;;;;;;11.15;3.17;;;;;;;28.48;43.66;100453.78;5086630;56;1141148;-75
2022/06/25 19:34:46;;;;;;;6.10;3.60;;;;;;;28.44;43.90;100462.66;5053789;57;1141303;-75
2022/06/25 19:39:52;;;;;;;10.13;3.27;;;;;;;28.41;44.03;100468.59;5007705;57;1139296;-74
2022/06/25 19:44:58;;;;;;;11.43;4.20;;;;;;;28.34;44.04;100472.25;5121679;57;1141123;-75
2022/06/25 19:50:07;;;;;;;6.08;3.77;;;;;;;28.21;44.07;100476.56;5039053;58;1141116;-75
2022/06/25 19:55:12;;;;;;;9.05;3.50;;;;;;;28.14;44.45;100479.05;5010722;58;1139070;-74
2022/06/25 20:00:18;;;;;;;7.03;3.52;;;;;;;28.05;44.51;100477.22;5046120;56;1139136;-75
2022/06/25 20:05:24;;;;;;;13.35;4.80;;;;;;;27.97;44.68;100468.86;5147984;56;1139082;-75
2022/06/25 20:10:30;;;;;;;8.85;4.30;;;;;;;27.87;44.58;100482.21;5205075;56;1141164;-75
2022/06/25 20:15:38;;;;;;;8.50;3.67;;;;;;;27.78;44.72;100481.43;5210292;56;1139350;-75
2022/06/25 20:20:43;;;;;;;7.20;4.30;;;;;;;27.64;44.77;100482.16;5242270;56;1139045;-75
2022/06/25 20:25:49;;;;;;;9.00;4.20;;;;;;;27.52;44.77;100487.50;5218352;56;1139017;-74
2022/06/25 20:30:57;;;;;;;13.35;3.45;;;;;;;27.40;44.66;100494.78;5153071;57;1139355;-73
2022/06/25 20:36:03;;;;;;;5.53;3.10;;;;;;;27.30;44.70;100493.98;5134046;57;1141058;-74
2022/06/25 20:41:09;;;;;;;8.20;2.90;;;;;;;27.21;44.88;100496.70;5141493;57;1139273;-73
2022/06/25 20:46:15;;;;;;;6.72;2.83;;;;;;;27.14;44.69;100498.68;5091087;57;1139019;-75
2022/06/25 20:51:21;;;;;;;4.22;3.37;;;;;;;27.04;44.61;100507.87;5086662;57;1139011;-75
2022/06/25 20:56:31;;;;;;;7.83;3.15;;;;;;;26.90;44.77;100509.05;5110372;57;1139029;-74
2022/06/25 21:01:38;;;;;;;3.80;3.40;;;;;;;26.84;44.98;100505.37;5124613;57;1139057;-74
2022/06/25 21:12:10;;;;;;;3.10;2.67;;;;;;;26.78;44.91;100509.50;5137992;57;1137023;-74
2022/06/25 21:17:18;;;;;;;10.10;3.37;;;;;;;26.73;44.87;100505.30;5154305;57;1136913;-74
2022/06/25 21:22:23;;;;;;;10.80;3.10;;;;;;;26.68;44.67;100501.06;5131343;57;1139022;-73
2022/06/25 21:27:29;;;;;;;7.75;3.52;;;;;;;26.55;44.54;100501.51;5100006;57;1139072;-74
2022/06/25 21:32:35;;;;;;;8.75;3.40;;;;;;;26.48;44.80;100506.67;5138279;57;1136924;-74
2022/06/25 21:37:41;;;;;;;6.33;3.95;;;;;;;26.33;44.70;100504.83;5013371;58;1136924;-74
2022/06/25 21:42:47;;;;;;;4.05;3.65;;;;;;;26.10;45.32;100495.41;5060219;58;1136903;-73
2022/06/25 21:47:53;;;;;;;5.10;3.45;;;;;;;26.10;45.32;100495.41;5148543;57;1137016;-74
2022/06/25 21:52:59;;;;;;;5.12;3.95;;;;;;;26.06;45.63;100500.14;5162445;57;1136953;-74
2022/06/25 21:58:08;;;;;;;5.40;3.42;;;;;;;26.02;45.82;100498.91;5161477;56;1136970;-74
2022/06/25 22:03:14;;;;;;;19.92;8.73;;;;;;;25.95;46.12;100494.08;5174847;56;1136976;-74
2022/06/25 22:08:20;;;;;;;16.07;8.08;;;;;;;25.87;46.27;100493.81;5143217;56;1139145;-74
2022/06/25 22:13:26;;;;;;;14.07;6.83;;;;;;;25.81;46.48;100491.99;5042787;58;1139089;-74
2022/06/25 22:18:32;;;;;;;11.50;5.35;;;;;;;25.74;46.60;100497.45;5228335;56;1139222;-74
2022/06/25 22:23:38;;;;;;;7.67;4.42;;;;;;;25.69;46.69;100499.14;5154401;57;1139138;-73
2022/06/25 22:28:44;;;;;;;8.88;4.28;;;;;;;25.61;46.96;100504.27;5155619;57;1137227;-74
2022/06/25 22:33:50;;;;;;;7.25;4.28;;;;;;;25.54;47.12;100504.81;5155827;57;1134933;-73
2022/06/25 22:38:56;;;;;;;10.70;4.60;;;;;;;25.50;47.29;100500.38;5157633;57;1134929;-74
2022/06/25 22:44:01;;;;;;;13.03;7.50;;;;;;;25.44;47.56;100509.36;5261121;56;21171;-74
2022/06/25 22:49:07;;;;;;;13.08;4.60;;;;;;;25.36;47.67;100507.44;5221898;56;1137036;-73
2022/06/25 22:54:13;;;;;;;8.08;3.58;;;;;;;25.23;47.89;100510.48;5221664;56;1141116;-74
2022/06/25 22:59:18;;;;;;;4.47;3.10;;;;;;;25.06;48.39;100521.48;5242241;56;1139215;-74
2022/06/25 23:04:24;;;;;;;4.23;3.83;;;;;;;24.90;48.85;100512.48;5153950;57;1146895;-73
2022/06/25 23:09:30;;;;;;;5.33;4.03;;;;;;;24.68;49.46;100511.06;5219590;56;1139101;-74
2022/06/25 23:14:36;;;;;;;6.75;3.62;;;;;;;24.57;50.02;100515.25;5164489;57;1139371;-74
2022/06/25 23:19:42;;;;;;;4.97;4.50;;;;;;;24.50;50.35;100515.24;5164378;57;1139030;-74
2022/06/25 23:24:49;;;;;;;9.05;4.28;;;;;;;24.46;50.60;100513.16;5164866;57;1139028;-73
2022/06/25 23:29:54;;;;;;;5.08;4.08;;;;;;;24.41;50.73;100515.68;5164442;57;1139056;-73
2022/06/25 23:35:01;;;;;;;5.12;3.58;;;;;;;24.33;51.02;100517.23;5164566;57;1139055;-73
2022/06/25 23:40:08;;;;;;;5.25;3.80;;;;;;;24.25;51.41;100518.80;5204339;56;1139308;-73
2022/06/25 23:45:13;;;;;;;5.10;3.95;;;;;;;24.17;51.70;100516.58;5156423;57;1139086;-74
2022/06/25 23:50:19;;;;;;;8.80;4.08;;;;;;;24.09;51.95;100522.20;5251348;56;1139438;-73
2022/06/25 23:55:25;;;;;;;3.87;3.58;;;;;;;24.06;52.30;100527.17;5251326;56;1139021;-73
